Time;durP1;ratioP1;P1;durP2;ratioP2;P2;SDS_P1;SDS_P2;PMS_P1;PMS_P2;Temp;Humidity;BMP_temperature;BMP_pressure;BME280_temperature;BME280_humidity;BME280_pressure;Samples;Min_cycle;Max_cycle;Signal;HPM_P1;HPM_P2
2023/06/28 00:00:14;;;;;;;3.87;1.70;;;18.10;99.90;;;;;;5055282;28;20178;-70
2023/06/28 00:02:39;;;;;;;1.87;1.60;;;18.10;99.90;;;;;;5055096;28;20167;-70
2023/06/28 00:05:08;;;;;;;3.10;1.70;;;18.00;99.90;;;;;;5054819;28;20398;-71
2023/06/28 00:07:34;;;;;;;1.67;1.30;;;18.00;99.90;;;;;;5055045;28;20205;-70
2023/06/28 00:10:00;;;;;;;2.97;1.63;;;18.00;99.90;;;;;;5055253;28;20428;-70
2023/06/28 00:12:27;;;;;;;1.93;1.50;;;18.00;99.90;;;;;;5055130;28;20638;-70
2023/06/28 00:14:54;;;;;;;3.20;1.50;;;18.00;99.90;;;;;;5055105;28;20185;-70
2023/06/28 00:17:27;;;;;;;9.70;2.23;;;18.00;99.90;;;;;;5054878;28;20441;-71
2023/06/28 00:19:56;;;;;;;2.10;1.67;;;18.00;99.90;;;;;;5054974;28;20406;-71
2023/06/28 00:22:29;;;;;;;2.80;1.80;;;17.90;99.90;;;;;;5054901;28;20399;-70
2023/06/28 00:25:05;;;;;;;3.87;2.17;;;17.90;99.90;;;;;;5054836;28;20550;-69
2023/06/28 00:27:31;;;;;;;2.03;1.47;;;17.90;99.90;;;;;;5054865;28;20412;-70
2023/06/28 00:29:57;;;;;;;7.03;2.20;;;17.80;99.90;;;;;;5054870;28;20393;-69
2023/06/28 00:32:24;;;;;;;3.77;1.70;;;17.80;99.90;;;;;;5054784;28;20405;-70
2023/06/28 00:34:50;;;;;;;1.53;1.20;;;17.80;99.90;;;;;;5054631;28;20845;-70
2023/06/28 00:37:15;;;;;;;3.43;1.30;;;17.80;99.90;;;;;;5054509;28;20500;-72
2023/06/28 00:39:41;;;;;;;2.07;1.87;;;17.80;99.90;;;;;;5054727;28;20644;-69
2023/06/28 00:42:07;;;;;;;1.40;1.30;;;17.80;99.90;;;;;;5054615;28;20524;-71
2023/06/28 00:44:33;;;;;;;3.03;1.20;;;17.80;99.90;;;;;;5054556;28;20194;-69
2023/06/28 00:47:00;;;;;;;1.63;1.40;;;17.80;99.90;;;;;;5053780;28;20417;-71
2023/06/28 00:49:28;;;;;;;2.50;1.37;;;17.80;99.90;;;;;;5054203;28;20744;-71
2023/06/28 00:51:55;;;;;;;2.20;1.23;;;17.80;99.90;;;;;;5054373;28;20505;-70
2023/06/28 00:54:21;;;;;;;7.10;1.37;;;17.70;99.90;;;;;;5054387;28;20918;-71
2023/06/28 00:56:48;;;;;;;2.83;2.03;;;17.70;99.90;;;;;;5052638;28;20464;-70
2023/06/28 00:59:14;;;;;;;4.90;1.30;;;17.70;99.90;;;;;;5054284;28;20397;-71
2023/06/28 01:01:41;;;;;;;3.00;1.80;;;17.70;99.90;;;;;;5054069;28;20447;-71
2023/06/28 01:04:06;;;;;;;2.27;1.27;;;17.60;99.90;;;;;;5053963;28;20444;-70
2023/06/28 01:06:37;;;;;;;3.03;1.40;;;17.60;99.90;;;;;;5054280;28;20782;-70
2023/06/28 01:09:04;;;;;;;2.03;1.30;;;17.60;99.90;;;;;;5055532;28;20171;-71
2023/06/28 01:11:30;;;;;;;2.50;1.27;;;17.60;99.90;;;;;;5054417;28;20398;-69
2023/06/28 01:13:57;;;;;;;2.60;1.60;;;17.60;99.90;;;;;;5054039;28;20501;-71
2023/06/28 01:16:23;;;;;;;4.67;1.90;;;17.50;99.90;;;;;;5053636;28;20429;-70
2023/06/28 01:18:48;;;;;;;2.40;1.70;;;17.50;99.90;;;;;;5053809;28;20759;-69
2023/06/28 01:21:16;;;;;;;4.70;1.50;;;17.50;99.90;;;;;;5053876;28;20217;-70
2023/06/28 01:23:42;;;;;;;1.70;1.30;;;17.50;99.90;;;;;;5053710;28;20334;-70
2023/06/28 01:26:11;;;;;;;1.30;1.17;;;17.50;99.90;;;;;;5053336;28;20425;-71
2023/06/28 01:28:37;;;;;;;3.80;1.73;;;17.50;99.90;;;;;;5053635;28;20197;-70
2023/06/28 01:31:03;;;;;;;1.90;1.70;;;17.40;99.90;;;;;;5053675;28;20918;-71
2023/06/28 01:33:29;;;;;;;1.30;1.20;;;17.40;99.90;;;;;;5053493;28;20411;-70
2023/06/28 01:35:56;;;;;;;2.10;1.70;;;17.30;99.90;;;;;;5053259;28;20492;-70
2023/06/28 01:38:23;;;;;;;1.60;1.50;;;17.30;99.90;;;;;;5053532;28;20177;-70
2023/06/28 01:40:52;;;;;;;3.80;1.80;;;17.20;99.90;;;;;;5053512;28;20416;-71
2023/06/28 01:43:18;;;;;;;3.53;1.57;;;17.10;99.90;;;;;;5053187;28;20514;-70
2023/06/28 01:45:44;;;;;;;2.23;1.43;;;17.10;99.90;;;;;;5052101;28;20806;-70
2023/06/28 01:48:10;;;;;;;4.83;1.37;;;17.00;99.90;;;;;;5053404;28;20401;-71
2023/06/28 01:50:36;;;;;;;2.27;1.60;;;17.00;99.90;;;;;;5053344;28;20177;-71
2023/06/28 01:53:03;;;;;;;4.47;1.63;;;16.90;99.90;;;;;;5053236;28;20406;-71
2023/06/28 01:55:29;;;;;;;3.03;2.30;;;16.80;99.90;;;;;;5052900;28;20170;-71
2023/06/28 01:57:56;;;;;;;2.50;1.70;;;16.70;99.90;;;;;;5053051;28;20918;-71
2023/06/28 02:00:21;;;;;;;3.47;1.60;;;16.70;99.90;;;;;;5050733;28;20409;-70
2023/06/28 02:02:47;;;;;;;2.80;2.00;;;16.70;99.90;;;;;;5052990;28;20410;-71
2023/06/28 02:05:12;;;;;;;2.27;1.60;;;16.70;99.90;;;;;;5052653;28;20252;-69
2023/06/28 02:07:38;;;;;;;1.77;1.53;;;16.70;99.90;;;;;;5052810;28;20676;-70
2023/06/28 02:10:04;;;;;;;1.77;1.67;;;16.70;99.90;;;;;;5052886;28;20173;-72
2023/06/28 02:12:30;;;;;;;1.50;1.40;;;16.70;99.90;;;;;;5052913;28;20185;-70
2023/06/28 02:14:56;;;;;;;2.80;1.50;;;16.70;99.90;;;;;;5052625;28;20488;-72
2023/06/28 02:17:21;;;;;;;4.10;1.60;;;16.70;99.90;;;;;;5052446;28;20198;-70
2023/06/28 02:19:48;;;;;;;3.10;1.33;;;16.70;99.90;;;;;;5052708;28;20246;-71
2023/06/28 02:22:16;;;;;;;2.43;1.40;;;16.70;99.90;;;;;;5052746;28;20194;-69
2023/06/28 02:24:42;;;;;;;1.63;1.53;;;16.70;99.90;;;;;;5052462;28;20441;-72
2023/06/28 02:27:09;;;;;;;1.63;1.50;;;16.80;99.90;;;;;;5052318;28;20475;-70
2023/06/28 02:29:35;;;;;;;2.37;1.37;;;16.80;99.90;;;;;;5052653;28;20402;-72
2023/06/28 02:32:01;;;;;;;3.47;1.60;;;16.80;99.90;;;;;;5052461;28;20428;-70
2023/06/28 02:34:27;;;;;;;3.53;1.47;;;16.80;99.90;;;;;;5052690;28;20459;-71
2023/06/28 02:36:52;;;;;;;1.60;1.50;;;16.80;99.90;;;;;;5052094;28;20425;-70
2023/06/28 02:39:18;;;;;;;1.63;1.43;;;16.80;99.90;;;;;;5052451;28;20478;-71
2023/06/28 02:41:44;;;;;;;4.50;1.90;;;16.90;99.90;;;;;;5052461;28;20655;-71
2023/06/28 02:44:09;;;;;;;2.07;1.53;;;16.90;99.90;;;;;;5052273;28;20716;-71
2023/06/28 02:46:35;;;;;;;1.57;1.03;;;16.90;99.90;;;;;;5051774;28;20187;-71
2023/06/28 02:49:01;;;;;;;1.57;1.47;;;16.90;99.90;;;;;;5052608;28;20167;-72
2023/06/28 02:51:26;;;;;;;2.67;1.63;;;16.90;99.90;;;;;;5052866;28;20585;-71
2023/06/28 02:53:52;;;;;;;1.90;1.30;;;16.90;99.90;;;;;;5052173;28;20167;-72
2023/06/28 02:56:17;;;;;;;5.60;1.73;;;16.90;99.90;;;;;;5051823;28;20190;-71
2023/06/28 02:58:43;;;;;;;5.30;1.77;;;16.90;99.90;;;;;;5052097;28;20181;-70
2023/06/28 03:01:09;;;;;;;1.67;1.40;;;16.90;99.90;;;;;;5051929;28;20171;-71
2023/06/28 03:03:35;;;;;;;2.43;1.77;;;16.90;99.90;;;;;;5051878;28;20549;-70
2023/06/28 03:06:02;;;;;;;1.57;1.47;;;16.90;99.90;;;;;;5051657;28;20751;-71
2023/06/28 03:08:27;;;;;;;1.70;1.30;;;16.90;99.90;;;;;;5051983;28;20425;-71
2023/06/28 03:10:53;;;;;;;3.03;1.60;;;16.90;99.90;;;;;;5051646;28;20411;-71
2023/06/28 03:13:18;;;;;;;2.90;2.20;;;16.90;99.90;;;;;;5051926;28;20175;-70
2023/06/28 03:15:44;;;;;;;1.33;1.23;;;16.80;99.90;;;;;;5051678;28;20243;-70
2023/06/28 03:18:10;;;;;;;1.87;1.60;;;16.80;99.90;;;;;;5051234;28;20198;-71
2023/06/28 03:20:35;;;;;;;1.87;1.60;;;16.80;99.90;;;;;;5051965;28;20174;-71
2023/06/28 03:23:02;;;;;;;3.40;1.50;;;16.80;99.90;;;;;;5051739;28;20655;-70
2023/06/28 03:25:28;;;;;;;1.87;1.77;;;16.70;99.90;;;;;;5051601;28;20217;-71
2023/06/28 03:27:53;;;;;;;5.00;1.90;;;16.70;99.90;;;;;;5051691;28;20460;-69
2023/06/28 03:30:19;;;;;;;2.30;1.70;;;16.70;99.90;;;;;;5051892;28;20789;-69
2023/06/28 03:32:44;;;;;;;2.00;1.20;;;16.70;99.90;;;;;;5051798;28;20163;-69
2023/06/28 03:35:10;;;;;;;2.23;1.80;;;16.80;99.90;;;;;;5051339;28;20163;-70
2023/06/28 03:37:35;;;;;;;2.20;1.77;;;16.80;99.90;;;;;;5051381;28;20183;-72
2023/06/28 03:40:02;;;;;;;3.20;1.53;;;16.80;99.90;;;;;;5051683;28;20169;-69
2023/06/28 03:42:27;;;;;;;4.30;2.03;;;16.90;99.90;;;;;;5051982;28;20163;-71
2023/06/28 03:44:53;;;;;;;2.70;1.80;;;16.90;99.90;;;;;;5051543;28;20551;-76
2023/06/28 03:47:18;;;;;;;3.73;2.10;;;17.00;99.90;;;;;;5051470;28;20215;-75
2023/06/28 03:49:45;;;;;;;3.63;2.23;;;17.10;99.90;;;;;;5051587;28;20163;-75
2023/06/28 03:52:10;;;;;;;3.83;2.03;;;17.10;99.90;;;;;;5051486;28;20170;-78
2023/06/28 03:54:36;;;;;;;3.90;2.13;;;17.20;99.90;;;;;;5051561;28;20405;-76
2023/06/28 03:57:02;;;;;;;2.43;1.90;;;17.20;99.90;;;;;;5051216;28;20270;-75
2023/06/28 03:59:28;;;;;;;2.80;2.20;;;17.20;99.90;;;;;;5051315;28;20195;-75
2023/06/28 04:01:53;;;;;;;2.27;1.80;;;17.20;99.90;;;;;;5051535;28;20520;-75
2023/06/28 04:04:19;;;;;;;3.17;2.33;;;17.10;99.90;;;;;;5051390;28;20611;-76
2023/06/28 04:06:45;;;;;;;4.43;1.90;;;17.10;99.90;;;;;;5051096;28;20241;-75
2023/06/28 04:09:10;;;;;;;3.80;2.33;;;17.10;99.90;;;;;;5049979;28;20191;-75
2023/06/28 04:11:36;;;;;;;3.40;2.07;;;17.10;99.90;;;;;;5051561;28;20421;-74
2023/06/28 04:14:01;;;;;;;4.50;1.93;;;17.20;99.90;;;;;;5051243;28;20171;-75
2023/06/28 04:16:27;;;;;;;4.37;2.00;;;17.20;99.90;;;;;;5049834;28;20202;-74
2023/06/28 04:18:52;;;;;;;2.10;1.90;;;17.20;99.90;;;;;;5051300;28;20163;-75
2023/06/28 04:21:18;;;;;;;4.17;1.60;;;17.20;99.90;;;;;;5051347;28;20253;-75
2023/06/28 04:23:44;;;;;;;3.70;2.70;;;17.30;99.90;;;;;;5053707;28;20217;-75
2023/06/28 04:26:10;;;;;;;3.77;1.93;;;17.30;99.90;;;;;;5054622;28;20419;-75
2023/06/28 04:28:35;;;;;;;4.20;2.50;;;17.30;99.90;;;;;;5054882;28;20484;-76
2023/06/28 04:31:02;;;;;;;3.00;2.00;;;17.30;99.90;;;;;;5054838;28;20228;-75
2023/06/28 04:33:29;;;;;;;3.70;1.77;;;17.30;99.90;;;;;;5054896;28;20212;-76
2023/06/28 04:35:56;;;;;;;3.30;2.00;;;17.30;99.90;;;;;;5054422;28;20412;-74
2023/06/28 04:38:22;;;;;;;5.63;2.03;;;17.40;99.90;;;;;;5054611;28;20422;-72
2023/06/28 04:40:48;;;;;;;2.10;1.90;;;17.50;99.90;;;;;;5054614;28;20480;-71
2023/06/28 04:43:15;;;;;;;3.23;1.90;;;17.60;99.90;;;;;;5054466;28;20498;-74
2023/06/28 04:45:41;;;;;;;1.80;1.70;;;17.70;99.90;;;;;;5054306;28;20397;-74
2023/06/28 04:48:07;;;;;;;3.93;1.90;;;17.80;99.90;;;;;;5054456;28;20418;-74
2023/06/28 04:50:34;;;;;;;2.00;1.80;;;17.80;99.90;;;;;;5054388;28;20393;-75
2023/06/28 04:53:00;;;;;;;2.90;1.50;;;17.70;99.90;;;;;;5054459;28;20403;-75
2023/06/28 04:55:32;;;;;;;4.60;2.30;;;17.70;99.90;;;;;;5052745;28;20432;-74
2023/06/28 04:58:02;;;;;;;7.80;1.83;;;17.70;99.90;;;;;;5052999;28;20433;-75
2023/06/28 05:00:28;;;;;;;3.47;1.97;;;17.70;99.90;;;;;;5054451;28;20398;-74
2023/06/28 05:02:56;;;;;;;1.60;1.43;;;17.80;99.90;;;;;;5054074;28;20399;-76
2023/06/28 05:05:23;;;;;;;2.70;1.40;;;17.80;99.90;;;;;;5053852;28;20459;-74
2023/06/28 05:07:49;;;;;;;6.50;2.03;;;17.90;99.90;;;;;;5054005;28;20437;-74
2023/06/28 05:10:15;;;;;;;2.20;2.00;;;17.90;99.90;;;;;;5053960;28;20438;-74
2023/06/28 05:12:40;;;;;;;2.50;1.97;;;18.00;99.90;;;;;;5053760;28;20436;-76
2023/06/28 05:15:06;;;;;;;2.20;1.57;;;18.20;99.90;;;;;;5053630;28;20163;-75
2023/06/28 05:17:32;;;;;;;2.40;1.30;;;18.30;99.90;;;;;;5053929;28;20194;-74
2023/06/28 05:19:57;;;;;;;2.80;1.77;;;18.40;99.90;;;;;;5053842;28;20903;-74
2023/06/28 05:22:24;;;;;;;1.90;1.60;;;18.50;99.90;;;;;;5053771;28;20160;-74
2023/06/28 05:24:50;;;;;;;2.53;1.70;;;18.50;99.90;;;;;;5053555;28;20194;-74
2023/06/28 05:27:15;;;;;;;2.60;1.73;;;18.60;99.90;;;;;;5052212;28;20435;-71
2023/06/28 05:29:41;;;;;;;4.67;1.70;;;18.60;99.90;;;;;;5053850;28;20584;-76
2023/06/28 05:32:07;;;;;;;2.30;1.90;;;18.50;99.90;;;;;;5053511;28;20163;-74
2023/06/28 05:34:33;;;;;;;2.33;1.60;;;18.50;99.90;;;;;;5053671;28;20187;-77
2023/06/28 05:36:59;;;;;;;2.80;2.03;;;18.50;99.90;;;;;;5052970;28;20218;-77
2023/06/28 05:39:24;;;;;;;3.60;1.70;;;18.60;99.90;;;;;;5053827;28;20441;-76
2023/06/28 05:41:50;;;;;;;2.40;2.20;;;18.70;99.90;;;;;;5053435;28;20254;-74
2023/06/28 05:44:20;;;;;;;2.70;1.50;;;18.70;99.90;;;;;;5053348;28;20708;-75
2023/06/28 05:46:46;;;;;;;2.37;1.60;;;18.70;99.90;;;;;;5053052;28;20175;-75
2023/06/28 05:49:12;;;;;;;1.60;1.40;;;18.80;99.90;;;;;;5053277;28;20402;-75
2023/06/28 05:51:37;;;;;;;2.47;1.60;;;19.00;99.90;;;;;;5053270;28;20540;-75
2023/06/28 05:54:03;;;;;;;2.90;1.30;;;19.00;99.90;;;;;;5053242;28;20245;-74
2023/06/28 05:56:29;;;;;;;1.53;1.17;;;19.10;99.90;;;;;;5052815;28;20669;-75
2023/06/28 05:58:56;;;;;;;2.57;2.03;;;19.00;99.90;;;;;;5053405;28;20489;-74
2023/06/28 06:01:25;;;;;;;3.70;2.03;;;18.90;99.90;;;;;;5053111;28;20766;-74
2023/06/28 06:03:50;;;;;;;2.70;1.80;;;18.80;99.90;;;;;;5052954;28;20502;-75
2023/06/28 06:06:17;;;;;;;3.67;1.90;;;18.80;99.90;;;;;;5052660;28;20908;-75
2023/06/28 06:08:43;;;;;;;1.90;1.80;;;18.80;99.90;;;;;;5053112;28;20268;-75
2023/06/28 06:11:08;;;;;;;3.83;2.03;;;18.80;99.90;;;;;;5052906;28;20444;-74
2023/06/28 06:13:34;;;;;;;3.53;1.60;;;18.70;99.90;;;;;;5052785;28;20175;-75
2023/06/28 06:15:59;;;;;;;2.03;1.83;;;18.70;99.90;;;;;;5052495;28;20185;-74
2023/06/28 06:18:25;;;;;;;4.53;2.10;;;18.70;99.90;;;;;;5052595;28;20169;-75
2023/06/28 06:20:51;;;;;;;3.60;2.00;;;18.60;99.90;;;;;;5052766;28;20545;-74
2023/06/28 06:23:18;;;;;;;3.63;1.50;;;18.50;99.90;;;;;;5052159;28;20183;-75
2023/06/28 06:25:44;;;;;;;3.67;2.33;;;18.50;99.90;;;;;;5052180;28;20163;-75
2023/06/28 06:28:09;;;;;;;2.87;2.10;;;18.50;99.90;;;;;;5052283;28;20436;-74
2023/06/28 06:30:35;;;;;;;2.17;1.80;;;18.60;99.90;;;;;;5052621;28;20166;-75
2023/06/28 06:33:00;;;;;;;3.43;2.70;;;18.60;99.90;;;;;;5052467;28;20163;-75
2023/06/28 06:35:27;;;;;;;3.10;2.30;;;18.60;99.90;;;;;;5052289;28;20168;-75
2023/06/28 06:37:53;;;;;;;4.60;3.03;;;18.60;99.90;;;;;;5052336;28;20563;-75
2023/06/28 06:40:19;;;;;;;3.03;2.03;;;18.60;99.90;;;;;;5052370;28;20405;-75
2023/06/28 06:42:45;;;;;;;2.97;2.30;;;18.60;99.90;;;;;;5052261;28;20405;-74
2023/06/28 06:45:16;;;;;;;4.90;2.47;;;18.60;99.90;;;;;;5051247;28;20225;-75
2023/06/28 06:47:43;;;;;;;3.67;2.60;;;18.60;99.90;;;;;;5052170;28;20421;-74
2023/06/28 06:50:09;;;;;;;3.30;2.27;;;18.60;99.90;;;;;;5052279;28;20404;-74
2023/06/28 06:52:35;;;;;;;5.27;2.80;;;18.70;99.90;;;;;;5052192;28;20404;-75
2023/06/28 06:55:00;;;;;;;5.30;2.00;;;18.80;99.90;;;;;;5051878;28;20410;-74
2023/06/28 06:57:26;;;;;;;4.37;2.23;;;18.90;99.90;;;;;;5052041;28;20663;-75
2023/06/28 06:59:51;;;;;;;2.37;1.87;;;18.90;99.90;;;;;;5052192;28;20192;-74
2023/06/28 07:02:19;;;;;;;3.10;2.13;;;19.00;99.90;;;;;;5051931;28;20167;-74
2023/06/28 07:04:45;;;;;;;4.17;2.23;;;19.00;99.90;;;;;;5051963;28;20202;-74
2023/06/28 07:07:10;;;;;;;11.80;2.50;;;19.10;99.90;;;;;;5051662;28;20437;-74
2023/06/28 07:09:36;;;;;;;2.30;2.10;;;19.20;99.90;;;;;;5051943;28;20246;-74
2023/06/28 07:12:01;;;;;;;12.50;3.73;;;19.20;99.90;;;;;;5051996;28;20162;-74
2023/06/28 07:14:27;;;;;;;2.17;1.97;;;19.30;99.90;;;;;;5051997;28;20170;-75
2023/06/28 07:16:52;;;;;;;3.80;2.53;;;19.30;99.90;;;;;;5051577;28;20194;-74
2023/06/28 07:19:18;;;;;;;5.70;2.77;;;19.30;99.90;;;;;;5051846;28;20182;-74
2023/06/28 07:21:43;;;;;;;3.80;2.47;;;19.30;99.90;;;;;;5051873;28;20174;-74
2023/06/28 07:24:09;;;;;;;4.63;3.03;;;19.40;99.90;;;;;;5051721;28;20206;-75
2023/06/28 07:26:34;;;;;;;4.47;2.60;;;19.60;99.90;;;;;;5051388;28;20332;-74
2023/06/28 07:29:00;;;;;;;2.07;1.87;;;19.80;99.90;;;;;;5051783;28;20174;-75
2023/06/28 07:31:25;;;;;;;2.87;2.67;;;19.90;99.90;;;;;;5051760;28;20169;-75
2023/06/28 07:33:51;;;;;;;2.40;2.10;;;20.10;99.90;;;;;;5051891;28;20229;-75
2023/06/28 07:36:16;;;;;;;5.90;1.97;;;20.30;99.90;;;;;;5051388;28;20202;-75
2023/06/28 07:38:42;;;;;;;3.43;2.33;;;20.40;99.90;;;;;;5051706;28;20584;-75
2023/06/28 07:41:07;;;;;;;2.70;2.00;;;20.50;99.90;;;;;;5051714;28;20640;-75
2023/06/28 07:43:33;;;;;;;4.00;1.70;;;20.50;99.90;;;;;;5051624;28;20201;-75
2023/06/28 07:45:59;;;;;;;4.63;2.63;;;20.60;99.90;;;;;;5051289;28;20163;-75
2023/06/28 07:48:26;;;;;;;2.80;2.60;;;20.80;99.90;;;;;;5051717;28;20178;-74
2023/06/28 07:50:52;;;;;;;3.90;1.83;;;20.80;99.90;;;;;;5051685;28;20410;-75
2023/06/28 07:53:17;;;;;;;5.50;2.77;;;21.00;99.90;;;;;;5051597;28;20837;-74
2023/06/28 07:55:43;;;;;;;5.20;1.60;;;21.10;99.90;;;;;;5051210;28;20673;-75
2023/06/28 07:58:08;;;;;;;2.90;2.00;;;21.10;99.90;;;;;;5053122;28;20523;-75
2023/06/28 08:00:34;;;;;;;3.97;2.03;;;21.20;99.90;;;;;;5055365;28;20450;-74
2023/06/28 08:03:01;;;;;;;4.00;1.53;;;21.00;99.90;;;;;;5055344;28;20174;-75
2023/06/28 08:05:26;;;;;;;1.40;1.30;;;20.80;99.90;;;;;;5055100;28;20616;-74
2023/06/28 08:07:54;;;;;;;3.60;2.07;;;21.00;99.90;;;;;;5055108;28;20457;-73
2023/06/28 08:10:20;;;;;;;2.50;1.33;;;21.10;99.90;;;;;;5055162;28;20167;-73
2023/06/28 08:12:45;;;;;;;1.83;1.50;;;21.30;99.90;;;;;;5055190;28;20401;-74
2023/06/28 08:15:11;;;;;;;2.03;1.60;;;21.40;99.90;;;;;;5054848;28;20184;-73
2023/06/28 08:17:37;;;;;;;2.37;1.90;;;21.50;99.90;;;;;;5055012;28;20182;-74
2023/06/28 08:20:03;;;;;;;6.00;3.67;;;21.60;99.90;;;;;;5055114;28;20194;-74
2023/06/28 08:22:29;;;;;;;3.80;2.30;;;21.60;99.90;;;;;;5054993;28;20170;-73
2023/06/28 08:24:54;;;;;;;4.30;2.57;;;21.70;99.90;;;;;;5054723;28;20453;-73
2023/06/28 08:27:20;;;;;;;2.37;2.17;;;21.70;99.90;;;;;;5054920;28;20179;-74
2023/06/28 08:29:45;;;;;;;3.63;1.33;;;21.60;99.90;;;;;;5054880;28;20281;-74
2023/06/28 08:32:11;;;;;;;2.30;1.73;;;21.60;99.90;;;;;;5053716;28;20181;-74
2023/06/28 08:34:36;;;;;;;8.70;1.90;;;21.50;99.90;;;;;;5054796;28;20632;-74
2023/06/28 08:37:03;;;;;;;6.63;1.60;;;21.60;99.90;;;;;;5054434;28;20183;-74
2023/06/28 08:39:29;;;;;;;1.90;1.60;;;21.70;99.90;;;;;;5054718;28;20163;-74
2023/06/28 08:41:56;;;;;;;7.17;2.20;;;21.30;99.90;;;;;;5054729;28;20406;-74
2023/06/28 08:44:25;;;;;;;1.90;1.43;;;21.30;99.90;;;;;;5054551;28;20278;-74
2023/06/28 08:46:52;;;;;;;2.77;1.97;;;21.20;99.90;;;;;;5054195;28;20446;-74
2023/06/28 08:49:19;;;;;;;1.60;1.50;;;21.20;99.90;;;;;;5054649;28;20505;-74
2023/06/28 08:51:46;;;;;;;4.20;1.97;;;21.20;99.90;;;;;;5054442;28;20416;-74
2023/06/28 08:54:13;;;;;;;2.70;2.40;;;21.10;99.90;;;;;;5054483;28;20492;-73
2023/06/28 08:56:39;;;;;;;4.13;2.20;;;21.20;99.90;;;;;;5053768;28;20421;-72
2023/06/28 08:59:05;;;;;;;3.20;1.83;;;21.20;99.90;;;;;;5054282;28;20406;-73
2023/06/28 09:01:32;;;;;;;5.03;2.13;;;21.10;99.90;;;;;;5054276;28;20408;-73
2023/06/28 09:03:59;;;;;;;5.00;1.63;;;21.10;99.90;;;;;;5054241;28;20456;-72
2023/06/28 09:06:27;;;;;;;4.17;1.80;;;21.00;99.90;;;;;;5053696;28;20795;-72
2023/06/28 09:08:53;;;;;;;3.37;1.80;;;21.10;99.90;;;;;;5053651;28;20413;-71
2023/06/28 09:11:19;;;;;;;1.63;1.37;;;21.20;99.90;;;;;;5054219;28;20413;-73
2023/06/28 09:13:45;;;;;;;1.53;1.43;;;21.10;99.90;;;;;;5053970;28;20772;-72
2023/06/28 09:16:11;;;;;;;2.90;1.63;;;21.00;99.90;;;;;;5053835;28;20191;-71
2023/06/28 09:18:37;;;;;;;2.07;1.40;;;21.00;99.90;;;;;;5054110;28;20277;-73
2023/06/28 09:21:03;;;;;;;1.50;1.40;;;21.10;99.90;;;;;;5054108;28;20551;-72
2023/06/28 09:23:32;;;;;;;2.20;1.90;;;21.00;99.90;;;;;;5053896;28;20499;-72
2023/06/28 09:25:58;;;;;;;10.93;1.80;;;21.20;99.90;;;;;;5052544;28;20436;-72
2023/06/28 09:28:35;;;;;;;5.00;1.43;;;21.20;99.90;;;;;;5053730;28;20437;-72
2023/06/28 09:31:01;;;;;;;1.43;1.10;;;21.30;99.90;;;;;;5053840;28;20555;-72
2023/06/28 09:33:27;;;;;;;2.63;2.33;;;21.50;99.90;;;;;;5052292;28;20466;-71
2023/06/28 09:35:54;;;;;;;1.97;1.63;;;21.50;99.90;;;;;;5053501;28;20409;-72
2023/06/28 09:38:21;;;;;;;2.83;1.87;;;21.50;99.90;;;;;;5053281;28;20171;-72
2023/06/28 09:40:54;;;;;;;6.10;1.30;;;21.60;99.90;;;;;;5053349;28;20498;-71
2023/06/28 09:43:19;;;;;;;1.93;1.30;;;21.60;99.90;;;;;;5053446;28;20488;-70
2023/06/28 09:45:47;;;;;;;3.10;1.40;;;21.50;99.90;;;;;;5053143;28;20451;-72
2023/06/28 09:48:12;;;;;;;2.13;1.53;;;21.70;99.90;;;;;;5052149;28;20174;-72
2023/06/28 09:50:45;;;;;;;3.50;1.60;;;21.50;99.90;;;;;;5053373;28;20409;-72
2023/06/28 09:53:17;;;;;;;2.07;1.27;;;21.60;99.90;;;;;;5072905;28;20167;-72
2023/06/28 09:55:44;;;;;;;2.97;1.67;;;21.60;99.90;;;;;;5072977;28;20764;-73
2023/06/28 09:58:18;;;;;;;3.30;1.40;;;21.60;99.90;;;;;;5053633;28;20437;-72
2023/06/28 10:00:46;;;;;;;1.50;1.40;;;21.60;99.90;;;;;;5052996;28;20405;-72
2023/06/28 10:03:14;;;;;;;2.97;1.60;;;21.50;99.90;;;;;;5053172;28;20973;-70
2023/06/28 10:05:41;;;;;;;3.13;2.00;;;21.50;99.90;;;;;;5052709;28;20459;-72
2023/06/28 10:08:09;;;;;;;3.57;1.70;;;21.40;99.90;;;;;;5052918;28;20448;-72
2023/06/28 10:10:36;;;;;;;2.43;1.70;;;21.60;99.90;;;;;;5052854;28;20403;-72
2023/06/28 10:13:09;;;;;;;3.43;1.50;;;21.80;99.90;;;;;;5052767;28;20410;-73
2023/06/28 10:15:56;;;;;;;1.70;1.30;;;21.70;99.90;;;;;;5052878;28;20924;-72
2023/06/28 10:18:24;;;;;;;2.70;1.80;;;22.10;99.90;;;;;;5073293;28;20425;-72
2023/06/28 10:20:50;;;;;;;4.50;1.77;;;22.20;99.90;;;;;;5072222;28;20454;-72
2023/06/28 10:23:17;;;;;;;2.63;1.80;;;22.20;99.90;;;;;;5072523;28;20451;-73
2023/06/28 10:25:46;;;;;;;5.77;1.67;;;22.40;99.90;;;;;;5071054;28;20511;-72
2023/06/28 10:28:15;;;;;;;10.47;3.63;;;22.40;99.90;;;;;;5072238;28;20412;-72
2023/06/28 10:30:45;;;;;;;3.37;1.60;;;22.50;99.90;;;;;;5072343;28;20408;-72
2023/06/28 10:33:11;;;;;;;6.00;2.10;;;22.50;99.90;;;;;;5071139;28;20941;-71
2023/06/28 10:35:37;;;;;;;1.90;1.80;;;22.70;99.90;;;;;;5071922;28;20499;-70
2023/06/28 10:38:04;;;;;;;4.20;2.13;;;23.20;99.90;;;;;;5072075;28;20903;-72
2023/06/28 10:40:30;;;;;;;7.33;1.83;;;23.70;99.90;;;;;;5072279;28;20174;-72
2023/06/28 10:42:55;;;;;;;3.30;2.30;;;23.90;99.90;;;;;;5052476;28;20899;-72
2023/06/28 10:45:34;;;;;;;4.03;2.13;;;24.30;99.90;;;;;;5051523;28;20171;-72
2023/06/28 10:48:00;;;;;;;6.43;2.70;;;24.40;99.90;;;;;;5067044;28;20189;-73
2023/06/28 10:50:26;;;;;;;8.50;3.27;;;24.50;99.50;;;;;;5072257;28;20450;-72
2023/06/28 10:52:54;;;;;;;1.73;1.60;;;24.60;98.00;;;;;;5071853;28;20785;-72
2023/06/28 10:55:33;;;;;;;4.47;2.00;;;24.70;96.60;;;;;;5072007;28;20166;-72
2023/06/28 10:58:11;;;;;;;6.17;2.63;;;24.90;97.20;;;;;;5070132;28;20973;-72
2023/06/28 11:00:36;;;;;;;7.13;1.73;;;24.90;95.70;;;;;;5032385;28;20406;-73
2023/06/28 11:03:04;;;;;;;4.13;2.17;;;25.00;95.30;;;;;;5046726;28;20408;-69
2023/06/28 11:05:54;;;;;;;3.53;1.63;;;24.90;94.00;;;;;;5050451;28;20652;-70
2023/06/28 11:08:20;;;;;;;2.70;2.10;;;25.20;94.60;;;;;;5052126;28;21008;-69
2023/06/28 11:10:48;;;;;;;2.40;1.73;;;25.30;93.40;;;;;;5051954;28;20448;-71
2023/06/28 11:13:33;;;;;;;2.40;1.90;;;25.20;92.70;;;;;;5051971;28;20406;-70
2023/06/28 11:16:17;;;;;;;6.47;2.50;;;25.20;93.40;;;;;;5051566;28;20488;-72
2023/06/28 11:18:42;;;;;;;3.57;2.00;;;25.30;92.50;;;;;;5051583;28;20863;-69
2023/06/28 11:21:21;;;;;;;4.77;1.90;;;25.80;92.40;;;;;;5051798;28;20441;-69
2023/06/28 11:23:47;;;;;;;4.10;2.30;;;25.90;90.30;;;;;;5051619;28;20578;-69
2023/06/28 11:26:35;;;;;;;2.57;2.27;;;26.00;90.30;;;;;;5051540;28;20421;-68
2023/06/28 11:29:00;;;;;;;3.80;2.07;;;26.40;88.20;;;;;;5051793;28;20179;-68
2023/06/28 11:31:42;;;;;;;7.70;3.10;;;26.60;86.80;;;;;;5052242;28;20464;-68
2023/06/28 11:34:10;;;;;;;2.80;2.30;;;26.90;86.20;;;;;;5055975;28;20580;-68
2023/06/28 11:36:37;;;;;;;2.50;2.27;;;27.00;84.70;;;;;;5055588;28;21017;-68
2023/06/28 11:39:03;;;;;;;3.07;2.63;;;26.90;81.40;;;;;;5055735;28;20401;-70
2023/06/28 11:41:34;;;;;;;5.30;2.50;;;26.70;79.60;;;;;;5055824;28;20750;-68
2023/06/28 11:44:04;;;;;;;3.97;2.60;;;26.40;79.50;;;;;;5056832;28;20535;-69
2023/06/28 11:46:33;;;;;;;2.67;2.30;;;26.20;79.10;;;;;;5056352;28;20421;-69
2023/06/28 11:49:01;;;;;;;4.27;3.87;;;26.40;81.70;;;;;;5056843;28;20401;-68
2023/06/28 11:51:27;;;;;;;4.27;3.00;;;26.40;83.20;;;;;;5056127;28;20484;-68
2023/06/28 11:53:56;;;;;;;2.60;2.07;;;26.80;84.50;;;;;;5055520;28;20814;-68
2023/06/28 11:56:49;;;;;;;4.30;2.50;;;27.30;81.60;;;;;;5055071;28;20842;-65
2023/06/28 11:59:19;;;;;;;3.90;3.30;;;27.50;78.10;;;;;;5054500;28;20503;-71
2023/06/28 12:01:45;;;;;;;5.80;2.50;;;27.80;76.90;;;;;;5055214;28;20413;-72
2023/06/28 12:04:19;;;;;;;2.23;2.03;;;28.30;76.40;;;;;;5055280;28;20456;-72
2023/06/28 12:06:46;;;;;;;4.70;2.17;;;28.90;75.70;;;;;;5054836;28;20494;-72
2023/06/28 12:09:20;;;;;;;4.27;3.10;;;29.60;75.60;;;;;;5055343;28;20398;-71
2023/06/28 12:11:53;;;;;;;6.70;2.80;;;30.20;70.90;;;;;;5055141;28;20416;-71
2023/06/28 12:14:21;;;;;;;4.83;3.00;;;30.60;65.00;;;;;;5055274;28;20420;-71
2023/06/28 12:16:47;;;;;;;5.97;2.63;;;30.80;62.70;;;;;;5054691;28;20464;-72
2023/06/28 12:19:17;;;;;;;3.80;2.57;;;30.80;61.90;;;;;;5055069;28;20431;-71
2023/06/28 12:21:44;;;;;;;2.57;2.37;;;31.00;59.50;;;;;;5054792;28;20555;-72
2023/06/28 12:24:16;;;;;;;3.93;2.53;;;31.00;58.70;;;;;;5054866;28;20453;-72
2023/06/28 12:26:48;;;;;;;4.20;2.87;;;31.20;58.20;;;;;;5054362;28;20421;-72
2023/06/28 12:29:14;;;;;;;4.87;3.47;;;31.60;57.70;;;;;;5055089;28;20408;-71
2023/06/28 12:31:45;;;;;;;3.40;2.20;;;31.20;55.10;;;;;;5054743;28;20398;-72
2023/06/28 12:34:11;;;;;;;3.27;2.47;;;31.20;55.00;;;;;;5054894;28;20182;-72
2023/06/28 12:36:40;;;;;;;2.27;2.03;;;31.20;55.60;;;;;;5054511;28;20516;-70
2023/06/28 12:39:07;;;;;;;4.20;2.80;;;31.60;56.90;;;;;;5054716;28;20475;-71
2023/06/28 12:41:33;;;;;;;3.20;2.20;;;31.50;52.80;;;;;;5054605;28;20408;-71
2023/06/28 12:43:59;;;;;;;2.33;2.10;;;31.50;53.50;;;;;;5053654;28;20449;-71